createdAt,value
2019-02-18T00:01:33.696Z,8.40
2019-02-18T00:04:03.085Z,7.90
2019-02-18T00:06:32.312Z,7.73
2019-02-18T00:09:01.531Z,7.53
2019-02-18T00:11:30.756Z,8.37
2019-02-18T00:13:59.960Z,7.50
2019-02-18T00:16:29.272Z,7.47
2019-02-18T00:18:58.557Z,7.67
2019-02-18T00:21:27.878Z,7.03
2019-02-18T00:23:57.262Z,7.47
2019-02-18T00:26:26.551Z,7.77
2019-02-18T00:28:55.762Z,7.37
2019-02-18T00:31:24.996Z,7.93
2019-02-18T00:33:54.368Z,7.30
2019-02-18T00:36:23.591Z,7.97
2019-02-18T00:38:52.859Z,7.93
2019-02-18T00:41:22.096Z,8.10
2019-02-18T00:43:51.390Z,7.73
2019-02-18T00:46:20.624Z,7.17
2019-02-18T00:48:49.894Z,7.60
2019-02-18T00:51:19.156Z,8.17
2019-02-18T00:53:48.382Z,7.47
2019-02-18T00:56:17.634Z,8.13
2019-02-18T00:58:46.989Z,8.67
2019-02-18T01:01:16.209Z,8.03
2019-02-18T01:03:45.450Z,7.67
2019-02-18T01:06:14.766Z,8.23
2019-02-18T01:08:44.087Z,7.93
2019-02-18T01:11:13.370Z,7.50
2019-02-18T01:13:42.586Z,7.83
2019-02-18T01:16:11.842Z,7.70
2019-02-18T01:18:41.214Z,8.63
2019-02-18T01:21:10.483Z,8.00
2019-02-18T01:23:39.736Z,8.77
2019-02-18T01:26:08.985Z,8.10
2019-02-18T01:28:38.232Z,7.70
2019-02-18T01:31:07.524Z,8.27
2019-02-18T01:33:36.759Z,8.03
2019-02-18T01:36:06.755Z,7.83
2019-02-18T01:38:35.978Z,8.10
2019-02-18T01:41:05.237Z,8.30
2019-02-18T01:43:34.444Z,8.57
2019-02-18T01:46:03.700Z,7.87
2019-02-18T01:48:32.978Z,7.90
2019-02-18T01:51:02.298Z,8.87
2019-02-18T01:53:31.595Z,8.13
2019-02-18T01:56:00.914Z,7.77
2019-02-18T01:58:30.182Z,8.13
2019-02-18T02:00:59.568Z,8.03
2019-02-18T02:03:28.748Z,8.43
2019-02-18T02:05:57.996Z,7.53
2019-02-18T02:08:27.294Z,7.57
2019-02-18T02:10:56.560Z,7.67
2019-02-18T02:13:30.788Z,8.10
2019-02-18T02:16:01.328Z,7.07
2019-02-18T02:18:30.661Z,7.90
2019-02-18T02:20:59.968Z,7.67
2019-02-18T02:23:29.208Z,8.00
2019-02-18T02:25:58.446Z,7.87
2019-02-18T02:28:27.759Z,8.00
2019-02-18T02:30:56.982Z,7.60
2019-02-18T02:33:26.273Z,7.87
2019-02-18T02:35:55.470Z,7.80
2019-02-18T02:38:24.761Z,7.30
2019-02-18T02:40:54.070Z,7.90
2019-02-18T02:43:23.364Z,7.63
2019-02-18T02:45:52.591Z,7.93
2019-02-18T02:48:21.807Z,7.90
2019-02-18T02:50:51.040Z,7.90
2019-02-18T02:53:20.246Z,7.43
2019-02-18T02:55:49.481Z,8.40
2019-02-18T02:58:18.760Z,7.20
2019-02-18T03:00:48.147Z,8.00
2019-02-18T03:03:17.388Z,7.80
2019-02-18T03:05:46.621Z,8.37
2019-02-18T03:08:20.430Z,7.70
2019-02-18T03:10:45.051Z,8.13
2019-02-18T03:13:14.314Z,7.30
2019-02-18T03:15:43.687Z,8.50
2019-02-18T03:18:12.951Z,8.07
2019-02-18T03:20:42.288Z,8.27
2019-02-18T03:23:11.668Z,8.47
2019-02-18T03:25:40.961Z,7.83
2019-02-18T03:28:54.578Z,8.30
2019-02-18T03:31:26.151Z,7.63
2019-02-18T03:33:59.782Z,7.37
2019-02-18T03:36:29.074Z,7.60
2019-02-18T03:38:58.287Z,7.67
2019-02-18T03:41:27.539Z,7.73
2019-02-18T03:43:56.762Z,9.17
2019-02-18T03:46:26.185Z,7.90
2019-02-18T03:48:55.398Z,8.50
2019-02-18T03:51:24.664Z,7.80
2019-02-18T03:53:53.968Z,8.00
2019-02-18T03:56:23.354Z,8.27
2019-02-18T03:58:52.577Z,8.33
2019-02-18T04:01:21.870Z,7.50
2019-02-18T04:03:51.207Z,7.80
2019-02-18T04:06:20.466Z,7.40
2019-02-18T04:08:49.775Z,7.90
2019-02-18T04:11:18.990Z,8.50
2019-02-18T04:13:48.268Z,8.60
2019-02-18T04:16:17.472Z,8.70
2019-02-18T04:18:46.719Z,8.73
2019-02-18T04:21:15.912Z,8.43
2019-02-18T04:23:45.137Z,8.83
2019-02-18T04:26:14.455Z,8.73
2019-02-18T04:28:43.690Z,8.53
2019-02-18T04:31:12.903Z,8.80
2019-02-18T04:33:42.202Z,9.30
2019-02-18T04:36:11.578Z,8.67
2019-02-18T04:38:40.861Z,8.50
2019-02-18T04:41:10.149Z,8.40
2019-02-18T04:43:41.956Z,8.90
2019-02-18T04:46:08.560Z,8.43
2019-02-18T04:48:37.846Z,8.93
2019-02-18T04:51:07.104Z,9.20
2019-02-18T04:53:36.319Z,8.80
2019-02-18T04:56:05.575Z,8.97
2019-02-18T04:58:34.860Z,9.37
2019-02-18T05:01:04.148Z,9.47
2019-02-18T05:03:33.374Z,8.83
2019-02-18T05:06:02.600Z,8.20
2019-02-18T05:08:31.801Z,9.17
2019-02-18T05:11:01.052Z,8.10
2019-02-18T05:13:30.359Z,9.23
2019-02-18T05:15:59.608Z,8.40
2019-02-18T05:18:28.826Z,9.23
2019-02-18T05:20:58.055Z,8.57
2019-02-18T05:23:27.251Z,9.47
2019-02-18T05:25:56.470Z,8.63
2019-02-18T05:28:25.792Z,9.70
2019-02-18T05:30:55.064Z,9.07
2019-02-18T05:33:24.296Z,9.27
2019-02-18T05:35:55.803Z,9.50
2019-02-18T05:38:22.756Z,10.37
2019-02-18T05:40:51.974Z,10.03
2019-02-18T05:43:21.177Z,8.83
2019-02-18T05:45:50.394Z,9.13
2019-02-18T05:48:19.629Z,9.83
2019-02-18T05:50:48.910Z,9.20
2019-02-18T05:53:18.151Z,9.23
2019-02-18T05:55:47.396Z,8.97
2019-02-18T05:58:16.611Z,9.40
2019-02-18T06:00:45.942Z,9.13
2019-02-18T06:03:15.211Z,8.97
2019-02-18T06:05:44.448Z,9.20
2019-02-18T06:08:13.682Z,9.20
2019-02-18T06:10:42.927Z,9.50
2019-02-18T06:13:12.188Z,9.70
2019-02-18T06:15:41.440Z,9.50
2019-02-18T06:18:10.675Z,9.97
2019-02-18T06:20:39.878Z,9.07
2019-02-18T06:23:09.110Z,9.10
2019-02-18T06:25:38.717Z,9.67
2019-02-18T06:28:07.913Z,9.57
2019-02-18T06:30:37.214Z,8.93
2019-02-18T06:33:06.413Z,9.43
2019-02-18T06:35:35.618Z,9.30
2019-02-18T06:38:04.852Z,8.80
2019-02-18T06:40:34.111Z,9.63
2019-02-18T06:43:08.150Z,9.57
2019-02-18T06:45:56.514Z,10.13
2019-02-18T06:48:33.302Z,8.73
2019-02-18T06:51:02.606Z,10.33
2019-02-18T06:53:31.835Z,9.47
2019-02-18T06:56:01.250Z,9.53
2019-02-18T06:58:50.188Z,9.30
2019-02-18T07:01:36.916Z,10.10
2019-02-18T07:04:31.390Z,10.63
2019-02-18T07:07:06.656Z,9.73
2019-02-18T07:09:55.055Z,10.87
2019-02-18T07:12:33.221Z,9.70
2019-02-18T07:15:02.553Z,10.50
2019-02-18T07:17:31.787Z,10.93
2019-02-18T07:20:01.159Z,9.47
2019-02-18T07:22:30.383Z,10.30
2019-02-18T07:24:59.754Z,9.77
2019-02-18T07:27:29.021Z,9.53
2019-02-18T07:29:58.316Z,10.00
2019-02-18T07:32:27.545Z,10.23
2019-02-18T07:34:56.809Z,10.27
2019-02-18T07:37:26.002Z,9.80
2019-02-18T07:40:01.559Z,10.57
2019-02-18T07:42:24.500Z,10.27
2019-02-18T07:44:53.725Z,10.07
2019-02-18T07:47:23.034Z,10.73
2019-02-18T07:49:52.246Z,10.03
2019-02-18T07:52:24.350Z,10.50
2019-02-18T07:54:53.578Z,10.10
2019-02-18T07:57:22.798Z,10.50
2019-02-18T07:59:52.023Z,10.13
2019-02-18T08:02:21.326Z,10.20
2019-02-18T08:04:50.574Z,10.43
2019-02-18T08:07:19.786Z,10.30
2019-02-18T08:09:49.110Z,11.07
2019-02-18T08:12:18.368Z,10.90
2019-02-18T08:14:47.620Z,11.37
2019-02-18T08:17:16.856Z,11.40
2019-02-18T08:19:46.150Z,10.33
2019-02-18T08:22:15.408Z,10.60
2019-02-18T08:24:44.669Z,10.63
2019-02-18T08:27:13.934Z,10.53
2019-02-18T08:29:43.174Z,11.57
2019-02-18T08:32:12.366Z,10.87
2019-02-18T08:34:41.590Z,11.07
2019-02-18T08:37:10.911Z,10.73
2019-02-18T08:39:40.201Z,10.87
2019-02-18T08:42:09.522Z,11.20
2019-02-18T08:44:38.915Z,10.80
2019-02-18T08:47:08.182Z,10.70
2019-02-18T08:49:37.426Z,10.17
2019-02-18T08:52:06.765Z,10.43
2019-02-18T08:54:35.974Z,10.73
2019-02-18T08:57:05.222Z,11.03
2019-02-18T08:59:34.498Z,10.60
2019-02-18T09:02:03.756Z,10.33
2019-02-18T09:04:33.034Z,10.47
2019-02-18T09:07:02.323Z,10.53
2019-02-18T09:09:31.556Z,10.00
2019-02-18T09:12:00.808Z,11.00
2019-02-18T09:14:30.070Z,10.33
2019-02-18T09:16:59.271Z,9.97
2019-02-18T09:19:28.530Z,10.40
2019-02-18T09:22:15.541Z,10.93
2019-02-18T09:24:50.644Z,10.60
2019-02-18T09:27:19.860Z,10.37
2019-02-18T09:29:49.087Z,10.50
2019-02-18T09:32:18.310Z,10.10
2019-02-18T09:34:53.196Z,10.80
2019-02-18T09:37:17.099Z,10.43
2019-02-18T09:39:46.351Z,10.17
2019-02-18T09:42:15.742Z,10.33
2019-02-18T09:44:44.983Z,11.17
2019-02-18T09:47:14.311Z,10.73
2019-02-18T09:49:43.506Z,10.30
2019-02-18T09:52:12.776Z,11.27
2019-02-18T09:54:41.990Z,10.63
2019-02-18T09:57:11.258Z,11.27
2019-02-18T09:59:40.460Z,10.83
2019-02-18T10:02:09.671Z,10.90
2019-02-18T10:04:39.078Z,10.50
2019-02-18T10:07:09.019Z,10.47
2019-02-18T10:09:38.399Z,10.93
2019-02-18T10:12:17.849Z,10.20
2019-02-18T10:14:36.977Z,10.67
2019-02-18T10:17:06.214Z,10.87
2019-02-18T10:19:35.422Z,9.93
2019-02-18T10:22:04.726Z,10.13
2019-02-18T10:24:33.995Z,10.60
2019-02-18T10:27:03.492Z,10.77
2019-02-18T10:29:32.697Z,10.17
2019-02-18T10:32:01.961Z,10.10
2019-02-18T10:34:31.201Z,10.43
2019-02-18T10:37:00.412Z,10.23
2019-02-18T10:39:29.698Z,10.40
2019-02-18T10:41:59.027Z,10.53
2019-02-18T10:44:28.300Z,10.30
2019-02-18T10:46:57.785Z,10.27
2019-02-18T10:49:27.000Z,9.90
2019-02-18T10:51:56.558Z,10.40
2019-02-18T10:54:25.821Z,9.90
2019-02-18T10:56:55.142Z,10.23
2019-02-18T10:59:24.525Z,10.20
2019-02-18T11:01:53.844Z,10.10
2019-02-18T11:04:23.118Z,10.20
2019-02-18T11:06:52.388Z,11.00
2019-02-18T11:09:21.603Z,10.37
2019-02-18T11:11:51.054Z,12.80
2019-02-18T11:14:20.426Z,11.47
2019-02-18T11:16:49.762Z,10.03
2019-02-18T11:19:19.025Z,9.80
2019-02-18T11:21:48.301Z,10.53
2019-02-18T11:24:17.626Z,10.43
2019-02-18T11:26:46.844Z,10.33
2019-02-18T11:29:16.158Z,11.37
2019-02-18T11:31:45.378Z,10.67
2019-02-18T11:34:14.659Z,9.83
2019-02-18T11:36:43.905Z,10.10
2019-02-18T11:39:13.870Z,10.13
2019-02-18T11:41:43.150Z,10.85
2019-02-18T11:44:12.477Z,10.35
2019-02-18T11:46:41.697Z,10.05
2019-02-18T11:49:11.096Z,11.03
2019-02-18T11:51:40.323Z,10.80
2019-02-18T11:54:09.569Z,10.03
2019-02-18T11:56:38.806Z,10.40
2019-02-18T11:59:08.043Z,10.60
2019-02-18T12:01:37.259Z,9.95
2019-02-18T12:04:06.519Z,10.08
2019-02-18T12:06:35.743Z,10.25
2019-02-18T12:09:05.617Z,10.45
2019-02-18T12:11:37.905Z,9.65
2019-02-18T12:14:04.243Z,10.63
2019-02-18T12:16:33.648Z,9.13
2019-02-18T12:19:02.952Z,9.65
2019-02-18T12:21:32.364Z,9.70
2019-02-18T12:24:01.862Z,9.48
2019-02-18T12:26:31.186Z,10.23
2019-02-18T12:29:00.503Z,10.45
2019-02-18T12:31:29.851Z,9.95
2019-02-18T12:33:59.201Z,10.00
2019-02-18T12:36:28.488Z,10.50
2019-02-18T12:38:57.682Z,9.95
2019-02-18T12:41:26.896Z,10.08
2019-02-18T12:43:56.514Z,10.85
2019-02-18T12:46:26.072Z,10.85
2019-02-18T12:48:55.339Z,10.82
2019-02-18T12:51:24.724Z,10.40
2019-02-18T12:54:04.563Z,9.68
2019-02-18T12:56:23.483Z,10.38
2019-02-18T12:58:54.911Z,9.25
2019-02-18T13:01:21.958Z,9.88
2019-02-18T13:03:51.185Z,8.80
2019-02-18T13:06:20.661Z,9.68
2019-02-18T13:08:49.865Z,8.95
2019-02-18T13:11:19.138Z,9.63
2019-02-18T13:13:48.407Z,9.13
2019-02-18T13:16:17.662Z,8.90
2019-02-18T13:18:46.857Z,9.13
2019-02-18T13:21:16.225Z,9.18
2019-02-18T13:23:45.476Z,9.60
2019-02-18T13:26:14.727Z,9.78
2019-02-18T13:28:44.838Z,9.98
2019-02-18T13:31:14.167Z,10.30
2019-02-18T13:33:43.395Z,9.68
2019-02-18T13:36:14.490Z,10.43
2019-02-18T13:38:44.000Z,10.80
2019-02-18T13:41:13.325Z,11.00
2019-02-18T13:43:42.558Z,11.20
2019-02-18T13:46:11.902Z,11.70
2019-02-18T13:48:41.186Z,11.05
2019-02-18T13:51:10.442Z,11.45
2019-02-18T13:53:39.812Z,11.43
2019-02-18T13:56:09.047Z,11.97
2019-02-18T13:58:38.436Z,10.85
2019-02-18T14:01:07.884Z,11.03
2019-02-18T14:03:37.115Z,11.30
2019-02-18T14:06:06.352Z,11.25
2019-02-18T14:08:35.647Z,10.95
2019-02-18T14:11:05.616Z,10.72
2019-02-18T14:13:34.868Z,10.68
2019-02-18T14:16:04.119Z,10.03
2019-02-18T14:18:33.672Z,10.50
2019-02-18T14:21:02.900Z,9.68
2019-02-18T14:23:32.131Z,9.75
2019-02-18T14:26:01.750Z,10.23
2019-02-18T14:28:31.118Z,9.95
2019-02-18T14:31:00.314Z,9.70
2019-02-18T14:33:29.644Z,9.98
2019-02-18T14:35:58.926Z,10.50
2019-02-18T14:38:28.486Z,11.40
2019-02-18T14:40:57.700Z,10.70
2019-02-18T14:43:27.078Z,10.30
2019-02-18T14:45:56.318Z,10.28
2019-02-18T14:48:25.774Z,10.38
2019-02-18T14:50:56.913Z,10.48
2019-02-18T14:53:24.438Z,9.70
2019-02-18T14:55:53.748Z,9.93
2019-02-18T14:58:23.030Z,10.00
2019-02-18T15:00:52.354Z,10.45
2019-02-18T15:03:21.624Z,9.68
2019-02-18T15:05:50.839Z,9.80
2019-02-18T15:08:20.282Z,10.48
2019-02-18T15:10:49.554Z,9.30
2019-02-18T15:13:18.808Z,8.83
2019-02-18T15:15:48.014Z,10.40
2019-02-18T15:18:17.280Z,8.88
2019-02-18T15:20:55.513Z,8.83
2019-02-18T15:23:24.738Z,8.98
2019-02-18T15:25:54.249Z,9.33
2019-02-18T15:28:23.511Z,9.38
2019-02-18T15:30:52.741Z,9.78
2019-02-18T15:33:22.039Z,8.98
2019-02-18T15:35:51.280Z,9.68
2019-02-18T15:38:20.571Z,9.85
2019-02-18T15:40:49.867Z,9.98
2019-02-18T15:43:19.178Z,9.67
2019-02-18T15:45:48.539Z,8.60
2019-02-18T15:48:17.907Z,9.43
2019-02-18T15:50:47.243Z,9.37
2019-02-18T15:53:16.503Z,10.30
2019-02-18T15:55:46.310Z,8.63
2019-02-18T15:58:15.596Z,9.63
2019-02-18T16:00:44.847Z,9.00
2019-02-18T16:03:14.401Z,8.40
2019-02-18T16:05:44.351Z,9.20
2019-02-18T16:08:15.880Z,9.33
2019-02-18T16:10:45.779Z,9.30
2019-02-18T16:13:15.042Z,9.13
2019-02-18T16:15:44.245Z,9.97
2019-02-18T16:18:13.490Z,10.03
2019-02-18T16:20:42.887Z,9.57
2019-02-18T16:23:12.138Z,9.50
2019-02-18T16:25:41.386Z,9.47
2019-02-18T16:28:10.697Z,9.30
2019-02-18T16:30:40.125Z,8.93
2019-02-18T16:33:09.348Z,10.23
2019-02-18T16:35:38.705Z,9.37
2019-02-18T16:38:07.973Z,9.83
2019-02-18T16:40:37.305Z,9.13
2019-02-18T16:43:06.554Z,9.33
2019-02-18T16:45:35.856Z,8.43
2019-02-18T16:48:05.139Z,13.27
2019-02-18T16:50:36.283Z,15.53
2019-02-18T16:53:05.558Z,11.00
2019-02-18T16:55:34.840Z,10.23
2019-02-18T16:58:04.072Z,8.83
2019-02-18T17:00:34.088Z,11.30
2019-02-18T17:03:03.370Z,12.70
2019-02-18T17:05:32.664Z,9.57
2019-02-18T17:08:01.983Z,9.97
2019-02-18T17:10:31.366Z,8.53
2019-02-18T17:13:07.858Z,8.43
2019-02-18T17:15:30.264Z,8.90
2019-02-18T17:17:59.496Z,8.63
2019-02-18T17:20:28.775Z,8.33
2019-02-18T17:22:58.031Z,9.30
2019-02-18T17:25:27.271Z,9.00
2019-02-18T17:27:56.639Z,8.23
2019-02-18T17:30:25.992Z,8.67
2019-02-18T17:32:58.178Z,9.50
2019-02-18T17:35:27.447Z,8.50
2019-02-18T17:37:56.780Z,8.70
2019-02-18T17:40:26.073Z,9.57
2019-02-18T17:42:55.454Z,9.17
2019-02-18T17:45:24.710Z,9.10
2019-02-18T17:47:53.968Z,9.87
2019-02-18T17:50:23.412Z,9.40
2019-02-18T17:52:52.725Z,10.83
2019-02-18T17:55:22.084Z,10.03
2019-02-18T17:57:51.280Z,10.67
2019-02-18T18:00:21.597Z,10.97
2019-02-18T18:02:50.075Z,9.80
2019-02-18T18:05:19.419Z,9.10
2019-02-18T18:07:48.790Z,10.23
2019-02-18T18:10:18.229Z,9.97
2019-02-18T18:12:47.472Z,9.97
2019-02-18T18:15:17.115Z,10.13
2019-02-18T18:17:46.362Z,10.47
2019-02-18T18:20:15.689Z,9.63
2019-02-18T18:22:44.954Z,10.63
2019-02-18T18:25:14.221Z,10.67
2019-02-18T18:27:43.500Z,10.77
2019-02-18T18:30:13.115Z,10.00
2019-02-18T18:32:42.410Z,10.43
2019-02-18T18:35:11.854Z,9.70
2019-02-18T18:37:41.335Z,9.53
2019-02-18T18:40:11.884Z,10.57
2019-02-18T18:42:41.188Z,10.23
2019-02-18T18:45:11.694Z,9.37
2019-02-18T18:47:41.275Z,9.97
2019-02-18T18:50:15.083Z,9.97
2019-02-18T18:52:44.449Z,9.70
2019-02-18T18:55:13.701Z,9.23
2019-02-18T18:57:42.974Z,9.67
2019-02-18T19:00:17.475Z,10.50
2019-02-18T19:02:46.810Z,9.97
2019-02-18T19:05:16.092Z,10.27
2019-02-18T19:07:45.339Z,9.70
2019-02-18T19:10:14.597Z,9.50
2019-02-18T19:12:43.913Z,10.43
2019-02-18T19:15:13.311Z,10.63
2019-02-18T19:17:42.580Z,9.97
2019-02-18T19:20:11.830Z,10.90
2019-02-18T19:22:41.134Z,10.10
2019-02-18T19:25:10.423Z,9.77
2019-02-18T19:27:39.628Z,9.90
2019-02-18T19:30:12.503Z,9.77
2019-02-18T19:32:40.024Z,9.73
2019-02-18T19:35:09.250Z,9.63
2019-02-18T19:37:38.617Z,9.63
2019-02-18T19:40:09.387Z,9.73
2019-02-18T19:42:38.707Z,9.73
2019-02-18T19:45:10.570Z,9.77
2019-02-18T19:47:39.839Z,9.40
2019-02-18T19:50:09.160Z,8.43
2019-02-18T19:52:38.432Z,9.37
2019-02-18T19:55:08.022Z,9.50
2019-02-18T19:57:37.488Z,10.27
2019-02-18T20:00:07.512Z,8.67
2019-02-18T20:02:36.800Z,9.27
2019-02-18T20:05:06.310Z,8.37
2019-02-18T20:07:35.542Z,8.27
2019-02-18T20:10:05.251Z,7.53
2019-02-18T20:12:34.510Z,7.90
2019-02-18T20:15:03.832Z,8.33
2019-02-18T20:17:33.238Z,7.73
2019-02-18T20:20:02.667Z,8.40
2019-02-18T20:22:32.019Z,7.47
2019-02-18T20:25:01.362Z,8.37
2019-02-18T20:27:30.614Z,7.97
2019-02-18T20:29:59.917Z,8.07
2019-02-18T20:32:29.242Z,7.80
2019-02-18T20:34:58.488Z,8.60
2019-02-18T20:37:27.726Z,8.90
2019-02-18T20:39:57.039Z,9.03
2019-02-18T20:42:26.314Z,7.97
2019-02-18T20:44:55.630Z,8.77
2019-02-18T20:47:24.938Z,8.93
2019-02-18T20:49:54.250Z,9.43
2019-02-18T20:52:23.524Z,8.17
2019-02-18T20:54:52.774Z,9.13
2019-02-18T20:57:22.033Z,8.97
2019-02-18T20:59:51.356Z,7.97
2019-02-18T21:02:20.627Z,8.90
2019-02-18T21:04:49.942Z,7.83
2019-02-18T21:07:19.182Z,8.83
2019-02-18T21:09:48.650Z,8.80
2019-02-18T21:12:20.027Z,9.17
2019-02-18T21:14:47.224Z,8.27
2019-02-18T21:17:16.504Z,9.43
2019-02-18T21:19:45.699Z,9.30
2019-02-18T21:22:14.958Z,8.90
2019-02-18T21:24:44.170Z,8.80
2019-02-18T21:27:13.472Z,8.70
2019-02-18T21:29:42.726Z,9.67
2019-02-18T21:32:12.024Z,10.03
2019-02-18T21:34:41.334Z,9.70
2019-02-18T21:37:10.556Z,9.57
2019-02-18T21:39:39.848Z,10.17
2019-02-18T21:42:09.124Z,9.80
2019-02-18T21:44:38.376Z,9.70
2019-02-18T21:47:07.601Z,9.83
2019-02-18T21:49:36.800Z,10.33
2019-02-18T21:52:06.044Z,9.33
2019-02-18T21:54:35.270Z,10.10
2019-02-18T21:57:04.552Z,10.00
2019-02-18T21:59:33.830Z,10.30
2019-02-18T22:02:03.052Z,10.07
2019-02-18T22:04:32.294Z,10.03
2019-02-18T22:07:01.537Z,9.93
2019-02-18T22:09:30.832Z,10.37
2019-02-18T22:12:00.057Z,10.47
2019-02-18T22:14:33.647Z,10.33
2019-02-18T22:16:58.646Z,10.87
2019-02-18T22:19:28.040Z,10.13
2019-02-18T22:21:57.355Z,10.53
2019-02-18T22:24:26.635Z,10.40
2019-02-18T22:26:55.957Z,10.23
2019-02-18T22:29:25.146Z,10.47
2019-02-18T22:31:54.437Z,10.47
2019-02-18T22:34:23.765Z,11.40
2019-02-18T22:36:53.051Z,10.20
2019-02-18T22:39:22.294Z,11.20
2019-02-18T22:41:51.480Z,10.83
2019-02-18T22:44:20.680Z,10.67
2019-02-18T22:46:49.933Z,11.43
2019-02-18T22:49:19.261Z,10.60
2019-02-18T22:51:48.477Z,10.27
2019-02-18T22:54:17.690Z,10.43
2019-02-18T22:56:46.901Z,11.00
2019-02-18T22:59:16.136Z,10.57
2019-02-18T23:01:45.344Z,11.00
2019-02-18T23:04:14.659Z,10.50
2019-02-18T23:06:43.926Z,10.53
2019-02-18T23:09:13.290Z,10.80
2019-02-18T23:11:42.539Z,10.37
2019-02-18T23:14:11.848Z,11.10
2019-02-18T23:16:41.027Z,11.00
2019-02-18T23:19:10.252Z,11.00
2019-02-18T23:21:40.550Z,12.03
2019-02-18T23:24:08.867Z,11.43
2019-02-18T23:26:38.074Z,10.93
2019-02-18T23:29:07.295Z,9.87
2019-02-18T23:31:36.533Z,9.97
2019-02-18T23:34:05.834Z,9.87
2019-02-18T23:36:35.044Z,10.03
2019-02-18T23:39:04.363Z,9.87
2019-02-18T23:41:33.650Z,9.67
2019-02-18T23:44:02.843Z,9.90
2019-02-18T23:46:32.056Z,10.97
2019-02-18T23:49:01.258Z,9.70
2019-02-18T23:51:30.475Z,10.77
2019-02-18T23:53:59.682Z,9.80
2019-02-18T23:56:28.906Z,9.67
2019-02-18T23:58:58.232Z,9.30
